Voornediep — PBEX — position and weather

sailwx.info

Track history (hours):
 
Tides and Currents Weather Stations Pressure Air Temp Water Temp Dewpoint Dewpoint Depression Visibility Wind Speed Wind Dir Waves Ship Positions

Voornediep

Last reported at 2017-Nov-17 17:30 UTC. Time now 2017-Nov-17 17:48 UTC.
Position N 53°53' E 009°06'.

Length 120 m; draft 7.4 m.

Type: Ship. MMSI: 246210000.

Date/timePositionNaut miles runAvg speedWind from/ knotsBaromVisibWave heightAir tempDewpointWater temp
2017-Nov-17 17:30N 53°53' E 009°06'2 3.6
2017-Nov-17 17:01N 53°54' E 009°09'0 0.6
2017-Nov-17 16:30N 53°54' E 009°09'3 5.7
2017-Nov-17 16:00N 53°56' E 009°12'4 8.5
2017-Nov-17 15:30N 53°59' E 009°17'3 6.3
2017-Nov-17 15:00N 54°02' E 009°18'2 3.6
2017-Nov-17 14:30N 54°04' E 009°19'4 8.3
2017-Nov-17 14:00N 54°08' E 009°20'4 8.2
2017-Nov-17 13:31N 54°10' E 009°26'4 8.3
2017-Nov-17 13:01N 54°12' E 009°33'0 0.4
2017-Nov-17 12:31N 54°12' E 009°33'2 4.4
2017-Nov-17 12:01N 54°13' E 009°36'3 5.1
2017-Nov-17 11:31N 54°16' E 009°37'3 5.3
2017-Nov-17 11:01N 54°18' E 009°41'4 7.2
2017-Nov-17 10:30N 54°20' E 009°45'28 5.1
2017-Nov-17 05:01N 54°33' E 010°28'1 9.9
2017-Nov-17 04:55N 54°33' E 010°30'410.2
2017-Nov-17 04:30N 54°35' E 010°36'510.5
2017-Nov-17 04:01N 54°35' E 010°45'510.7
2017-Nov-17 03:31N 54°36' E 010°55'611.6
2017-Nov-17 03:01N 54°36' E 011°05'611.5
2017-Nov-17 02:31N 54°35' E 011°14'611.8
2017-Nov-17 02:01N 54°32' E 011°24'612.0
2017-Nov-17 01:31N 54°30' E 011°33'612.0
2017-Nov-17 01:00N 54°27' E 011°42'611.8
2017-Nov-17 00:30N 54°26' E 011°52'1310.4
2017-Nov-16 23:17N 54°31' E 012°12'6811.6
2017-Nov-16 17:27N 55°03' E 013°56'912.0
2017-Nov-16 16:40N 55°08' E 014°09'212.5
2017-Nov-16 16:30N 55°10' E 014°12'912.4
2017-Nov-16 15:49N 55°17' E 014°21'812.6
2017-Nov-16 15:13N 55°23' E 014°29'312.7
2017-Nov-16 15:01N 55°25' E 014°32'612.2
2017-Nov-16 14:29N 55°27' E 014°43'812.4
2017-Nov-16 13:51N 55°28' E 014°56'512.5
2017-Nov-16 13:29N 55°28' E 015°05'612.5
2017-Nov-16 13:01N 55°28' E 015°15'612.5
2017-Nov-16 12:31N 55°29' E 015°26'612.6
2017-Nov-16 12:01N 55°29' E 015°37'612.6
2017-Nov-16 11:30N 55°30' E 015°48'612.7
2017-Nov-16 11:01N 55°31' E 015°59'612.5
2017-Nov-16 10:31N 55°32' E 016°10'612.4
2017-Nov-16 10:00N 55°33' E 016°21'812.6
2017-Nov-16 09:22N 55°33' E 016°35'512.6
2017-Nov-16 08:59N 55°33' E 016°43'612.6
2017-Nov-16 08:31N 55°34' E 016°54'  
2017-Nov-10 02:21N 55°29' E 015°59'3 9.7
2017-Nov-10 02:00N 55°29' E 015°53'5 9.7
2017-Nov-10 01:30N 55°29' E 015°44'11 9.9
2017-Nov-10 00:26N 55°28' E 015°26'410.1
2017-Nov-10 00:00N 55°27' E 015°18'510.0
2017-Nov-09 23:30N 55°27' E 015°09'510.1
2017-Nov-09 23:00N 55°26' E 015°01'510.1
2017-Nov-09 22:30N 55°26' E 014°52'510.2
2017-Nov-09 22:00N 55°25' E 014°43'611.0
2017-Nov-09 21:30N 55°21' E 014°36'510.8
2017-Nov-09 21:00N 55°16' E 014°31'511.0
2017-Nov-09 20:30N 55°12' E 014°24'510.6
2017-Nov-09 20:00N 55°10' E 014°16'4510.6
2017-Nov-09 15:46N 55°15' E 012°57'312.6
2017-Nov-09 15:30N 55°15' E 012°52'612.7
2017-Nov-09 15:01N 55°17' E 012°41'5 9.2
2017-Nov-09 14:30N 55°21' E 012°38'612.2
2017-Nov-09 14:00N 55°27' E 012°41'612.2
2017-Nov-09 13:30N 55°33' E 012°42'612.3
2017-Nov-09 13:01N 55°40' E 012°41'612.1
2017-Nov-09 12:30N 55°46' E 012°42'612.3
2017-Nov-09 12:00N 55°52' E 012°41'612.6
2017-Nov-09 11:30N 55°58' E 012°38'611.7
2017-Nov-09 11:00N 56°04' E 012°38'612.2
2017-Nov-09 10:30N 56°07' E 012°29'8511.6
2017-Nov-09 03:13N 56°57' E 010°25'312.4
2017-Nov-09 03:00N 56°58' E 010°20'510.8
2017-Nov-09 02:30N 56°60' E 010°11'611.7
2017-Nov-09 02:01N 57°04' E 010°03'3 4.9
2017-Nov-09 01:28N 57°04' E 009°58'0 0.0
2017-Nov-09 00:55N 57°04' E 009°58'0 0.0
2017-Nov-09 00:28N 57°04' E 009°58'0 0.0
2017-Nov-08 23:55N 57°04' E 009°58'0 0.0
2017-Nov-08 23:28N 57°04' E 009°58'0 0.0
2017-Nov-08 22:58N 57°04' E 009°58'0 0.0
2017-Nov-08 22:28N 57°04' E 009°58'0 0.0
2017-Nov-08 21:58N 57°04' E 009°58'0 0.0
2017-Nov-08 21:28N 57°04' E 009°58'0 0.0
2017-Nov-08 20:58N 57°04' E 009°58'0 0.0
2017-Nov-08 20:28N 57°04' E 009°58'0 0.0
2017-Nov-08 19:58N 57°04' E 009°58'0 0.0
2017-Nov-08 19:28N 57°04' E 009°58'0 0.0
2017-Nov-08 18:58N 57°04' E 009°58'0 0.0
2017-Nov-08 18:28N 57°04' E 009°58'0 0.0
2017-Nov-08 17:55N 57°04' E 009°58'0 0.0
2017-Nov-08 17:28N 57°04' E 009°58'0 0.0
2017-Nov-08 16:58N 57°04' E 009°58'0 0.0
2017-Nov-08 16:28N 57°04' E 009°58'0 0.0
2017-Nov-08 15:58N 57°04' E 009°58'0 0.0
2017-Nov-08 15:28N 57°04' E 009°58'0 0.0
2017-Nov-08 14:58N 57°04' E 009°58'0 0.0
2017-Nov-08 14:28N 57°04' E 009°58'0 0.0
2017-Nov-08 13:58N 57°04' E 009°58'0 0.0
2017-Nov-08 13:28N 57°04' E 009°58'0 0.0
2017-Nov-08 12:58N 57°04' E 009°58'0 0.0
2017-Nov-08 12:28N 57°04' E 009°58'0 0.0
2017-Nov-08 11:58N 57°04' E 009°58'0 0.0
2017-Nov-08 11:28N 57°04' E 009°58'0 0.0
2017-Nov-08 10:58N 57°04' E 009°58'0 0.0
2017-Nov-08 10:28N 57°04' E 009°58'0 0.0
2017-Nov-08 09:55N 57°04' E 009°58'0 0.0
2017-Nov-08 09:28N 57°04' E 009°58'0 0.0
2017-Nov-08 08:55N 57°04' E 009°58'0 0.0
2017-Nov-08 08:28N 57°04' E 009°58'0 0.0
2017-Nov-08 07:58N 57°04' E 009°58'0 0.0
2017-Nov-08 07:28N 57°04' E 009°58'0 0.0
2017-Nov-08 06:58N 57°04' E 009°58'0 0.0
2017-Nov-08 06:25N 57°04' E 009°58'0 0.0
2017-Nov-08 05:58N 57°04' E 009°58'0 0.0
2017-Nov-08 05:28N 57°04' E 009°58'0 0.0
2017-Nov-08 04:58N 57°04' E 009°58'0 0.0
2017-Nov-08 04:28N 57°04' E 009°58'0 0.0
2017-Nov-08 03:58N 57°04' E 009°58'0 0.0
2017-Nov-08 03:28N 57°04' E 009°58'0 0.0
2017-Nov-08 02:58N 57°04' E 009°58'0 0.0
2017-Nov-08 02:28N 57°04' E 009°58'0 0.0
2017-Nov-08 01:58N 57°04' E 009°58'0 0.0
2017-Nov-08 01:28N 57°04' E 009°58'0 0.0
2017-Nov-08 00:58N 57°04' E 009°58'0 0.0
2017-Nov-08 00:28N 57°04' E 009°58'0 0.0
2017-Nov-07 23:58N 57°04' E 009°58'0 0.0
2017-Nov-07 23:28N 57°04' E 009°58'0 0.0
2017-Nov-07 22:58N 57°04' E 009°58'0 0.1
2017-Nov-07 22:28N 57°04' E 009°58'0 0.1
2017-Nov-07 21:55N 57°04' E 009°58'0 0.0
2017-Nov-07 21:28N 57°04' E 009°58'0 0.0
2017-Nov-07 20:58N 57°04' E 009°58'0 0.0
2017-Nov-07 20:28N 57°04' E 009°58'0 0.0
2017-Nov-07 19:58N 57°04' E 009°58'0 0.1
2017-Nov-07 19:28N 57°04' E 009°58'0 0.1
2017-Nov-07 18:58N 57°04' E 009°58'0 0.0
2017-Nov-07 18:28N 57°04' E 009°58'0 0.0
2017-Nov-07 17:58N 57°04' E 009°58'  
Track history (hours):
 
Tides and Currents Weather Stations Pressure Air Temp Water Temp Dewpoint Dewpoint Depression Visibility Wind Speed Wind Dir Waves Ship Positions

Voornediep

Last reported at 2017-Nov-17 17:30 UTC. Time now 2017-Nov-17 17:48 UTC.
Position N 53°53' E 009°06'.

Length 120 m; draft 7.4 m.

Type: Ship. MMSI: 246210000.

Date/timePositionNaut miles runAvg speedWind from/ knotsBaromVisibWave heightAir tempDewpointWater temp
2017-Nov-17 17:30N 53°53' E 009°06'2 3.6
2017-Nov-17 17:01N 53°54' E 009°09'0 0.6
2017-Nov-17 16:30N 53°54' E 009°09'3 5.7
2017-Nov-17 16:00N 53°56' E 009°12'4 8.5
2017-Nov-17 15:30N 53°59' E 009°17'3 6.3
2017-Nov-17 15:00N 54°02' E 009°18'2 3.6
2017-Nov-17 14:30N 54°04' E 009°19'4 8.3
2017-Nov-17 14:00N 54°08' E 009°20'4 8.2
2017-Nov-17 13:31N 54°10' E 009°26'4 8.3
2017-Nov-17 13:01N 54°12' E 009°33'0 0.4
2017-Nov-17 12:31N 54°12' E 009°33'2 4.4
2017-Nov-17 12:01N 54°13' E 009°36'3 5.1
2017-Nov-17 11:31N 54°16' E 009°37'3 5.3
2017-Nov-17 11:01N 54°18' E 009°41'4 7.2
2017-Nov-17 10:30N 54°20' E 009°45'28 5.1
2017-Nov-17 05:01N 54°33' E 010°28'1 9.9
2017-Nov-17 04:55N 54°33' E 010°30'410.2
2017-Nov-17 04:30N 54°35' E 010°36'510.5
2017-Nov-17 04:01N 54°35' E 010°45'510.7
2017-Nov-17 03:31N 54°36' E 010°55'611.6
2017-Nov-17 03:01N 54°36' E 011°05'611.5
2017-Nov-17 02:31N 54°35' E 011°14'611.8
2017-Nov-17 02:01N 54°32' E 011°24'612.0
2017-Nov-17 01:31N 54°30' E 011°33'612.0
2017-Nov-17 01:00N 54°27' E 011°42'611.8
2017-Nov-17 00:30N 54°26' E 011°52'1310.4
2017-Nov-16 23:17N 54°31' E 012°12'6811.6
2017-Nov-16 17:27N 55°03' E 013°56'912.0
2017-Nov-16 16:40N 55°08' E 014°09'212.5
2017-Nov-16 16:30N 55°10' E 014°12'912.4
2017-Nov-16 15:49N 55°17' E 014°21'812.6
2017-Nov-16 15:13N 55°23' E 014°29'312.7
2017-Nov-16 15:01N 55°25' E 014°32'612.2
2017-Nov-16 14:29N 55°27' E 014°43'812.4
2017-Nov-16 13:51N 55°28' E 014°56'512.5
2017-Nov-16 13:29N 55°28' E 015°05'612.5
2017-Nov-16 13:01N 55°28' E 015°15'612.5
2017-Nov-16 12:31N 55°29' E 015°26'612.6
2017-Nov-16 12:01N 55°29' E 015°37'612.6
2017-Nov-16 11:30N 55°30' E 015°48'612.7
2017-Nov-16 11:01N 55°31' E 015°59'612.5
2017-Nov-16 10:31N 55°32' E 016°10'612.4
2017-Nov-16 10:00N 55°33' E 016°21'812.6
2017-Nov-16 09:22N 55°33' E 016°35'512.6
2017-Nov-16 08:59N 55°33' E 016°43'612.6
2017-Nov-16 08:31N 55°34' E 016°54'  
2017-Nov-10 02:21N 55°29' E 015°59'3 9.7
2017-Nov-10 02:00N 55°29' E 015°53'5 9.7
2017-Nov-10 01:30N 55°29' E 015°44'11 9.9
2017-Nov-10 00:26N 55°28' E 015°26'410.1
2017-Nov-10 00:00N 55°27' E 015°18'510.0
2017-Nov-09 23:30N 55°27' E 015°09'510.1
2017-Nov-09 23:00N 55°26' E 015°01'510.1
2017-Nov-09 22:30N 55°26' E 014°52'510.2
2017-Nov-09 22:00N 55°25' E 014°43'611.0
2017-Nov-09 21:30N 55°21' E 014°36'510.8
2017-Nov-09 21:00N 55°16' E 014°31'511.0
2017-Nov-09 20:30N 55°12' E 014°24'510.6
2017-Nov-09 20:00N 55°10' E 014°16'4510.6
2017-Nov-09 15:46N 55°15' E 012°57'312.6
2017-Nov-09 15:30N 55°15' E 012°52'612.7
2017-Nov-09 15:01N 55°17' E 012°41'5 9.2
2017-Nov-09 14:30N 55°21' E 012°38'612.2
2017-Nov-09 14:00N 55°27' E 012°41'612.2
2017-Nov-09 13:30N 55°33' E 012°42'612.3
2017-Nov-09 13:01N 55°40' E 012°41'612.1
2017-Nov-09 12:30N 55°46' E 012°42'612.3
2017-Nov-09 12:00N 55°52' E 012°41'612.6
2017-Nov-09 11:30N 55°58' E 012°38'611.7
2017-Nov-09 11:00N 56°04' E 012°38'612.2
2017-Nov-09 10:30N 56°07' E 012°29'8511.6
2017-Nov-09 03:13N 56°57' E 010°25'312.4
2017-Nov-09 03:00N 56°58' E 010°20'510.8
2017-Nov-09 02:30N 56°60' E 010°11'611.7
2017-Nov-09 02:01N 57°04' E 010°03'3 4.9
2017-Nov-09 01:28N 57°04' E 009°58'0 0.0
2017-Nov-09 00:55N 57°04' E 009°58'0 0.0
2017-Nov-09 00:28N 57°04' E 009°58'0 0.0
2017-Nov-08 23:55N 57°04' E 009°58'0 0.0
2017-Nov-08 23:28N 57°04' E 009°58'0 0.0
2017-Nov-08 22:58N 57°04' E 009°58'0 0.0
2017-Nov-08 22:28N 57°04' E 009°58'0 0.0
2017-Nov-08 21:58N 57°04' E 009°58'0 0.0
2017-Nov-08 21:28N 57°04' E 009°58'0 0.0
2017-Nov-08 20:58N 57°04' E 009°58'0 0.0
2017-Nov-08 20:28N 57°04' E 009°58'0 0.0
2017-Nov-08 19:58N 57°04' E 009°58'0 0.0
2017-Nov-08 19:28N 57°04' E 009°58'0 0.0
2017-Nov-08 18:58N 57°04' E 009°58'0 0.0
2017-Nov-08 18:28N 57°04' E 009°58'0 0.0
2017-Nov-08 17:55N 57°04' E 009°58'0 0.0
2017-Nov-08 17:28N 57°04' E 009°58'0 0.0
2017-Nov-08 16:58N 57°04' E 009°58'0 0.0
2017-Nov-08 16:28N 57°04' E 009°58'0 0.0
2017-Nov-08 15:58N 57°04' E 009°58'0 0.0
2017-Nov-08 15:28N 57°04' E 009°58'0 0.0
2017-Nov-08 14:58N 57°04' E 009°58'0 0.0
2017-Nov-08 14:28N 57°04' E 009°58'0 0.0
2017-Nov-08 13:58N 57°04' E 009°58'0 0.0
2017-Nov-08 13:28N 57°04' E 009°58'0 0.0
2017-Nov-08 12:58N 57°04' E 009°58'0 0.0
2017-Nov-08 12:28N 57°04' E 009°58'0 0.0
2017-Nov-08 11:58N 57°04' E 009°58'0 0.0
2017-Nov-08 11:28N 57°04' E 009°58'0 0.0
2017-Nov-08 10:58N 57°04' E 009°58'0 0.0
2017-Nov-08 10:28N 57°04' E 009°58'0 0.0
2017-Nov-08 09:55N 57°04' E 009°58'0 0.0
2017-Nov-08 09:28N 57°04' E 009°58'0 0.0
2017-Nov-08 08:55N 57°04' E 009°58'0 0.0
2017-Nov-08 08:28N 57°04' E 009°58'0 0.0
2017-Nov-08 07:58N 57°04' E 009°58'0 0.0
2017-Nov-08 07:28N 57°04' E 009°58'0 0.0
2017-Nov-08 06:58N 57°04' E 009°58'0 0.0
2017-Nov-08 06:25N 57°04' E 009°58'0 0.0
2017-Nov-08 05:58N 57°04' E 009°58'0 0.0
2017-Nov-08 05:28N 57°04' E 009°58'0 0.0
2017-Nov-08 04:58N 57°04' E 009°58'0 0.0
2017-Nov-08 04:28N 57°04' E 009°58'0 0.0
2017-Nov-08 03:58N 57°04' E 009°58'0 0.0
2017-Nov-08 03:28N 57°04' E 009°58'0 0.0
2017-Nov-08 02:58N 57°04' E 009°58'0 0.0
2017-Nov-08 02:28N 57°04' E 009°58'0 0.0
2017-Nov-08 01:58N 57°04' E 009°58'0 0.0
2017-Nov-08 01:28N 57°04' E 009°58'0 0.0
2017-Nov-08 00:58N 57°04' E 009°58'0 0.0
2017-Nov-08 00:28N 57°04' E 009°58'0 0.0
2017-Nov-07 23:58N 57°04' E 009°58'0 0.0
2017-Nov-07 23:28N 57°04' E 009°58'0 0.0
2017-Nov-07 22:58N 57°04' E 009°58'0 0.1
2017-Nov-07 22:28N 57°04' E 009°58'0 0.1
2017-Nov-07 21:55N 57°04' E 009°58'0 0.0
2017-Nov-07 21:28N 57°04' E 009°58'0 0.0
2017-Nov-07 20:58N 57°04' E 009°58'0 0.0
2017-Nov-07 20:28N 57°04' E 009°58'0 0.0
2017-Nov-07 19:58N 57°04' E 009°58'0 0.1
2017-Nov-07 19:28N 57°04' E 009°58'0 0.1
2017-Nov-07 18:58N 57°04' E 009°58'0 0.0
2017-Nov-07 18:28N 57°04' E 009°58'0 0.0
2017-Nov-07 17:58N 57°04' E 009°58'  

Dump ship's entire track history